x

Isle Of Shoals, Nh (iosn3) Weather Station

6:00am - Wed 23rd Aug 2017 All times are EDT. -4 hours from GMT.

  • Wind
    22mph, 22mph gusts
  • Air Temp 72°f
  • Sea Pressure 1004.2mb
  • Isle Of Shoals, Nh
  • Isle Of Shoals, Nh

More Historic Weather Station data

Upgrade to MSW Pro to gain access to the past 30 days of data for over 8000 Wavebouys and Weather Stations around the globe.

Join

Comparision Forecast

View Surf forecast
   
Wed 08/23 6:00am 22 22 mph 1004.2mb 72f
5:00am 17 18 mph 1003.8mb 70f
4:00am 14 15 mph 1003.9mb 71f
3:00am 15 15 mph 1004.5mb 70f
2:00am 18 20 mph 1005.5mb 69f
1:00am 9 13 mph 1006mb 71f
12:00am 31 33 mph 1004.4mb 70f
Tue 08/22 11:00pm 31 32 mph 1004.6mb 71f
10:00pm 32 33 mph 1004.8mb 72f
9:00pm 34 37 mph 1005.7mb 73f
8:00pm 33 33 mph 1005.9mb 74f
7:00pm 29 31 mph 1006.2mb 74f
6:00pm 26 28 mph 1006.9mb 74f
5:00pm 28 29 mph 1007.6mb 73f
4:00pm 24 25 mph 1008.2mb 74f
3:00pm 24 24 mph 1009.8mb 73f
2:00pm 21 22 mph 1011mb 73f
1:00pm 22 22 mph 1011.8mb 72f
12:00pm 20 22 mph 1012.8mb 74f
11:00am 20 20 mph 1013.7mb 71f
10:00am 13 14 mph 1014.1mb 70f
9:00am 10 10 mph 1014.7mb 70f
8:00am 11 11 mph 1015.3mb 69f
7:00am 9 10 mph 1015.4mb 69f
6:00am 11 11 mph 1015.4mb 69f
5:00am 10 10 mph 1015.4mb 70f
4:00am 11 13 mph 1015.6mb 70f
3:00am 7 8 mph 1016.1mb 71f
2:00am 10 10 mph 1016.8mb 71f
1:00am 14 14 mph 1016.7mb 73f
12:00am 20 20 mph 1016.9mb 73f
Mon 08/21 11:00pm 21 21 mph 1016.8mb 75f
10:00pm 14 14 mph 1017mb 76f
9:00pm 16 17 mph 1017.3mb 79f
8:00pm 11 13 mph 1017mb 79f
7:00pm 10 10 mph 1017.2mb 80f
6:00pm 11 13 mph 1017.4mb 76f
5:00pm 17 18 mph 1017.6mb 75f
4:00pm 11 13 mph 1017.8mb 75f
3:00pm 15 16 mph 1018mb 77f
2:00pm 17 18 mph 1018.7mb 76f
1:00pm 16 16 mph 1019.3mb 77f
12:00pm 13 13 mph 1019.9mb 72f
11:00am 9 9 mph 1020mb 71f
10:00am 11 11 mph 1019.9mb 68f
9:00am 11 11 mph 1020.3mb 67f
8:00am 10 10 mph 1020.7mb 64f
7:00am 9 9 mph 1020.4mb 64f
6:00am 13 13 mph 1019.9mb 66f
5:00am 8 8 mph 1019.6mb 64f
4:00am 2 3 mph 1019.2mb 64f
3:00am 7 8 mph 1019.1mb 65f
2:00am 7 7 mph 1018.9mb 66f
1:00am 10 10 mph 1018.8mb 68f
12:00am 6 7 mph 1018.5mb 69f
Sun 08/20 11:00pm 3 5 mph 1017.9mb 68f
10:00pm 6 7 mph 1017.8mb 69f
9:00pm 7 8 mph 1017.2mb 73f
8:00pm 13 13 mph 1016.2mb 75f
7:00pm 16 16 mph 1015.7mb 77f
6:00pm 20 21 mph 1014.9mb 76f
5:00pm 20 23 mph 1014.6mb 76f
4:00pm 18 21 mph 1014.3mb 77f
3:00pm 23 24 mph 1013.7mb 77f
2:00pm 16 17 mph 1013.7mb 76f
1:00pm 15 17 mph 1013.5mb 75f
12:00pm 17 20 mph 1013.1mb 75f
11:00am 13 14 mph 1012.9mb 73f
10:00am 20 21 mph 1012.4mb 73f
9:00am 10 11 mph 1012.5mb 70f
8:00am 10 11 mph 1012.1mb 68f
7:00am 10 10 mph 1011.4mb 69f
6:00am 8 8 mph 1010.8mb 68f
5:00am 7 7 mph 1010.1mb 69f
4:00am 6 6 mph 1009.7mb 68f
3:00am 10 10 mph 1009.7mb 70f
2:00am 7 7 mph 1009.7mb 67f
1:00am 13 13 mph 1009.8mb 69f
12:00am 15 15 mph 1009.9mb 69f
Sat 08/19 11:00pm 15 15 mph 1009.5mb 69f
10:00pm 15 16 mph 1009.4mb 65f
9:00pm 18 20 mph 1009mb 67f
8:00pm 18 20 mph 1008.6mb 66f
7:00pm 17 20 mph 1008.1mb 65f
6:00pm 16 17 mph 1008.3mb 65f
5:00pm 16 16 mph 1008.1mb 65f
4:00pm 18 20 mph 1008mb 65f
3:00pm 14 14 mph 1008.3mb 66f
2:00pm 13 13 mph 1008.6mb 65f
1:00pm 8 8 mph 1009.2mb 65f
12:00pm 6 6 mph 1009.3mb 64f